This is the latest recevied weather packets stored in our database for station/object K9VSK-9. If no packets are shown the sender has not sent any weather packets the latest 10 day(s).
| Time | Temp. | Humidity | Pressure | Rain* | Wind** | Luminosity | Snow |
|---|---|---|---|---|---|---|---|
| 1778175113 | 12.78° C | 63% | 1014.5 hPa | 0 mm | - | - | - |
| 1778174813 | 13.89° C | 58% | 1014.8 hPa | 0 mm | - | - | - |
| 1778174512 | 15° C | 51% | 1015 hPa | 0 mm | - | - | - |
| 1778174212 | 15° C | 46% | 1015.2 hPa | 0 mm | - | - | - |
| 1778173912 | 15.56° C | 44% | 1015.2 hPa | 0 mm | - | - | - |
| 1778173611 | 16.11° C | 43% | 1015.2 hPa | 0 mm | - | - | - |
| 1778173311 | 16.67° C | 44% | 1015.1 hPa | 0 mm | - | - | - |
| 1778173011 | 15.56° C | 47% | 1015.2 hPa | 0 mm | - | - | - |
| 1778172711 | 15° C | 47% | 1015.2 hPa | 0 mm | - | - | - |
| 1778172410 | 14.44° C | 47% | 1015.2 hPa | 0 mm | - | - | - |
| 1778172110 | 13.89° C | 48% | 1015.3 hPa | 0 mm | - | - | - |
| 1778171810 | 13.89° C | 48% | 1015.3 hPa | 0 mm | - | - | - |
| 1778171510 | 13.89° C | 48% | 1015.6 hPa | 0 mm | - | - | - |
| 1778171209 | 14.44° C | 46% | 1016 hPa | 0 mm | - | - | - |
| 1778170909 | 14.44° C | 47% | 1015.8 hPa | 0 mm | - | - | - |
| 1778170609 | 14.44° C | 46% | 1015.7 hPa | 0 mm | - | - | - |
| 1778170309 | 14.44° C | 47% | 1015.7 hPa | 0 mm | - | - | - |
| 1778170008 | 14.44° C | 48% | 1015.7 hPa | 0 mm | - | - | - |
| 1778169708 | 14.44° C | 47% | 1015.6 hPa | 0 mm | - | - | - |
| 1778169408 | 14.44° C | 47% | 1015.6 hPa | 0 mm | - | - | - |
| 1778169107 | 14.44° C | 47% | 1015.6 hPa | 0 mm | - | - | - |
| 1778168807 | 13.89° C | 47% | 1015.7 hPa | 0 mm | - | - | - |
| 1778168507 | 13.89° C | 48% | 1015.7 hPa | 0 mm | - | - | - |
| 1778168207 | 13.89° C | 47% | 1015.8 hPa | 0 mm | - | - | - |
| 1778167906 | 13.89° C | 47% | 1015.9 hPa | 0 mm | - | - | - |
* Rain latest hour (hover to see other rain measurements)
** Current wind speed in m/s (hover to see current wind gust speed)